KHON/HON METAR and TAF weather

Enter ICAO airport designator
Station Type Date Time Source
KHON METAR 2021/01/20 22:55 UTC NOAA

KHON 202255Z AUTO 30017G31KT 10SM CLR 07/M08 A2975 RMK AO2 PK WND 30033/2230 SLP087 T00721083


Station Type Date Time Source
KHON Decoded METAR 2021/01/20 22:55 UTC NOAA

HURON REGIONAL AIRPORT, SD, United States (KHON) 44-23N 098-14W 390M
Jan 20, 2021 - 05:55 PM EST / 2021.01.20 2255 UTC
Wind: from the WNW (300 degrees) at 20 MPH (17 KT) gusting to 36 MPH (31 KT):0
Visibility: 10 mile(s):0
Sky conditions: clear
Temperature: 45.0 F (7.2 C)
Dew Point: 17.1 F (-8.3 C)
Relative Humidity: 32%
Pressure (altimeter): 29.75 in. Hg (1007 hPa)
ob: KHON 202255Z AUTO 30017G31KT 10SM CLR 07/M08 A2975 RMK AO2 PK WND 30033/2230 SLP087 T00721083
cycle: 23

Station Type Date Time Source
KHON TAF 2021/01/20 18:22 UTC NOAA

TAF KHON 201720Z 2018/2118 29016G25KT P6SM SCT250
FM210100 28012G18KT P6SM FEW250
FM210300 27011KT P6SM FEW250 WS020/30040KT
FM211100 30011KT P6SM SKC
FM211600 32015G25KT P6SM SKC

Example: see airport list